createdAt,value
2023-10-23T00:02:12.876Z,101189.34
2023-10-23T00:04:35.981Z,101191.63
2023-10-23T00:06:57.888Z,101190.66
2023-10-23T00:09:19.709Z,101186.59
2023-10-23T00:11:41.544Z,101193.94
2023-10-23T00:14:03.639Z,101187.47
2023-10-23T00:16:25.568Z,101196.41
2023-10-23T00:18:47.582Z,101195.94
2023-10-23T00:21:09.654Z,101197.25
2023-10-23T00:23:31.425Z,101201.34
2023-10-23T00:25:53.162Z,101206.22
2023-10-23T00:28:14.904Z,101212.41
2023-10-23T00:30:37.511Z,101210.63
2023-10-23T00:32:59.362Z,101210.50
2023-10-23T00:35:21.199Z,101205.63
2023-10-23T00:37:43.706Z,101210.97
2023-10-23T00:40:06.888Z,101214.91
2023-10-23T00:42:29.053Z,101208.53
2023-10-23T00:44:52.460Z,101208.88
2023-10-23T00:47:17.771Z,101210.00
2023-10-23T00:49:40.229Z,101206.78
2023-10-23T00:52:03.007Z,101209.06
2023-10-23T00:54:25.834Z,101198.22
2023-10-23T00:56:48.749Z,101205.34
2023-10-23T00:59:11.416Z,101208.28
2023-10-23T01:01:34.340Z,101207.16
2023-10-23T01:03:56.110Z,101201.16
2023-10-23T01:06:17.943Z,101212.53
2023-10-23T01:08:40.741Z,101210.88
2023-10-23T01:11:02.581Z,101208.47
2023-10-23T01:13:26.640Z,101215.44
2023-10-23T01:15:48.381Z,101220.78
2023-10-23T01:18:10.194Z,101220.63
2023-10-23T01:20:33.705Z,101220.47
2023-10-23T01:22:59.628Z,101228.88
2023-10-23T01:25:21.313Z,101233.75
2023-10-23T01:27:44.078Z,101232.78
2023-10-23T01:30:07.320Z,101238.13
2023-10-23T01:32:29.819Z,101224.53
2023-10-23T01:34:51.651Z,101228.75
2023-10-23T01:37:13.393Z,101238.13
2023-10-23T01:39:35.202Z,101233.25
2023-10-23T01:41:56.952Z,101239.06
2023-10-23T01:44:18.691Z,101238.59
2023-10-23T01:46:40.468Z,101240.03
2023-10-23T01:49:02.228Z,101232.44
2023-10-23T01:51:23.984Z,101222.03
2023-10-23T01:53:46.464Z,101227.84
2023-10-23T01:56:09.568Z,101230.13
2023-10-23T01:58:32.286Z,101231.56
2023-10-23T02:00:54.088Z,101236.91
2023-10-23T02:03:15.930Z,101233.19
2023-10-23T02:05:37.749Z,101233.50
2023-10-23T02:08:03.574Z,101234.31
2023-10-23T02:10:25.416Z,101231.38
2023-10-23T02:12:47.130Z,101225.22
2023-10-23T02:15:11.389Z,101226.19
2023-10-23T02:17:33.268Z,101235.09
2023-10-23T02:19:55.113Z,101238.63
2023-10-23T02:22:19.705Z,101233.13
2023-10-23T02:24:42.257Z,101235.88
2023-10-23T02:27:04.285Z,101243.34
2023-10-23T02:29:27.551Z,101253.53
2023-10-23T02:31:50.107Z,101255.47
2023-10-23T02:34:12.163Z,101251.41
2023-10-23T02:36:34.442Z,101250.59
2023-10-23T02:38:56.308Z,101242.69
2023-10-23T02:41:18.032Z,101259.50
2023-10-23T02:43:39.696Z,101260.63
2023-10-23T02:46:02.908Z,101258.69
2023-10-23T02:48:24.750Z,101263.06
2023-10-23T02:50:56.832Z,101252.56
2023-10-23T02:53:18.559Z,101259.19
2023-10-23T02:55:41.714Z,101263.56
2023-10-23T02:58:03.443Z,101263.56
2023-10-23T03:00:25.395Z,101266.63
2023-10-23T03:02:47.219Z,101257.56
2023-10-23T03:05:09.175Z,101266.97
2023-10-23T03:07:30.920Z,101263.22
2023-10-23T03:09:53.198Z,101262.72
2023-10-23T03:12:14.973Z,101264.97
2023-10-23T03:14:36.681Z,101268.06
2023-10-23T03:16:59.036Z,101276.59
2023-10-23T03:19:23.593Z,101268.66
2023-10-23T03:21:45.279Z,101270.31
2023-10-23T03:24:07.872Z,101266.25
2023-10-23T03:26:30.056Z,101267.34
2023-10-23T03:28:52.329Z,101269.31
2023-10-23T03:31:14.019Z,101263.00
2023-10-23T03:33:35.755Z,101264.59
2023-10-23T03:35:57.727Z,101264.59
2023-10-23T03:38:19.467Z,101269.31
2023-10-23T03:40:41.145Z,101264.59
2023-10-23T03:43:03.017Z,101265.75
2023-10-23T03:45:24.828Z,101264.59
2023-10-23T03:47:46.535Z,101279.50
2023-10-23T03:50:08.796Z,101273.19
2023-10-23T03:52:31.569Z,101267.69
2023-10-23T03:54:53.264Z,101275.44
2023-10-23T03:57:14.993Z,101274.63
2023-10-23T03:59:37.759Z,101282.41
2023-10-23T04:01:59.584Z,101270.88
2023-10-23T04:04:21.422Z,101276.38
2023-10-23T04:06:43.238Z,101278.34
2023-10-23T04:09:04.962Z,101287.09
2023-10-23T04:11:27.604Z,101283.50
2023-10-23T04:13:49.578Z,101284.66
2023-10-23T04:16:11.532Z,101278.84
2023-10-23T04:18:33.389Z,101279.94
2023-10-23T04:21:13.164Z,101269.44
2023-10-23T04:23:39.086Z,101271.38
2023-10-23T04:26:01.151Z,101276.88
2023-10-23T04:28:23.863Z,101278.84
2023-10-23T04:30:45.592Z,101276.09
2023-10-23T04:33:07.329Z,101283.03
2023-10-23T04:35:29.942Z,101286.91
2023-10-23T04:37:51.697Z,101283.97
2023-10-23T04:40:14.055Z,101293.69
2023-10-23T04:42:35.849Z,101286.38
2023-10-23T04:44:57.599Z,101289.41
2023-10-23T04:47:19.323Z,101282.09
2023-10-23T04:49:41.471Z,101280.00
2023-10-23T04:52:03.709Z,101280.13
2023-10-23T04:54:25.448Z,101283.81
2023-10-23T04:56:47.855Z,101277.19
2023-10-23T04:59:09.977Z,101276.72
2023-10-23T05:01:31.775Z,101274.75
2023-10-23T05:03:54.564Z,101274.44
2023-10-23T05:06:16.458Z,101279.13
2023-10-23T05:08:38.177Z,101281.06
2023-10-23T05:11:10.662Z,101271.69
2023-10-23T05:13:33.482Z,101274.75
2023-10-23T05:15:55.340Z,101279.47
2023-10-23T05:18:17.058Z,101272.66
2023-10-23T05:20:38.755Z,101280.41
2023-10-23T05:23:00.477Z,101284.06
2023-10-23T05:25:22.172Z,101284.38
2023-10-23T05:27:43.997Z,101285.81
2023-10-23T05:30:08.019Z,101281.47
2023-10-23T05:32:29.803Z,101281.47
2023-10-23T05:34:51.611Z,101283.19
2023-10-23T05:37:13.900Z,101284.81
2023-10-23T05:39:36.491Z,101281.75
2023-10-23T05:41:58.312Z,101283.38
2023-10-23T05:44:20.117Z,101283.69
2023-10-23T05:46:42.754Z,101281.75
2023-10-23T05:49:04.564Z,101279.81
2023-10-23T05:51:26.372Z,101272.50
2023-10-23T05:53:48.163Z,101279.44
2023-10-23T05:56:09.928Z,101284.94
2023-10-23T05:58:32.899Z,101290.44
2023-10-23T06:00:54.838Z,101288.53
2023-10-23T06:03:16.766Z,101291.75
2023-10-23T06:05:42.869Z,101297.13
2023-10-23T06:08:05.242Z,101297.63
2023-10-23T06:10:27.058Z,101290.22
2023-10-23T06:12:48.801Z,101291.31
2023-10-23T06:15:11.375Z,101287.13
2023-10-23T06:17:33.270Z,101289.88
2023-10-23T06:19:55.074Z,101287.13
2023-10-23T06:22:16.961Z,101295.88
2023-10-23T06:24:38.738Z,101293.63
2023-10-23T06:27:00.779Z,101298.34
2023-10-23T06:29:22.527Z,101287.00
2023-10-23T06:31:44.412Z,101299.63
2023-10-23T06:34:06.151Z,101292.19
2023-10-23T06:36:27.963Z,101287.81
2023-10-23T06:38:49.751Z,101291.56
2023-10-23T06:41:11.494Z,101286.88
2023-10-23T06:43:35.034Z,101298.38
2023-10-23T06:46:02.357Z,101295.31
2023-10-23T06:48:24.672Z,101305.31
2023-10-23T06:50:51.135Z,101299.63
2023-10-23T06:53:12.889Z,101295.25
2023-10-23T06:55:34.646Z,101298.50
2023-10-23T06:57:56.427Z,101304.81
2023-10-23T07:00:18.448Z,101304.81
2023-10-23T07:02:40.280Z,101296.88
2023-10-23T07:05:02.994Z,101301.56
2023-10-23T07:07:30.026Z,101298.81
2023-10-23T07:09:54.534Z,101295.75
2023-10-23T07:12:17.528Z,101291.38
2023-10-23T07:14:39.621Z,101301.44
2023-10-23T07:17:01.420Z,101296.63
2023-10-23T07:19:23.208Z,101298.75
2023-10-23T07:21:44.901Z,101298.59
2023-10-23T07:24:07.394Z,101291.88
2023-10-23T07:26:29.115Z,101286.53
2023-10-23T07:28:51.456Z,101294.66
2023-10-23T07:31:14.517Z,101301.16
2023-10-23T07:33:36.540Z,101292.25
2023-10-23T07:36:16.450Z,101303.63
2023-10-23T07:38:44.961Z,101295.06
2023-10-23T07:41:06.728Z,101288.63
2023-10-23T07:43:30.346Z,101291.03
2023-10-23T07:45:57.286Z,101291.22
2023-10-23T07:48:28.592Z,101293.97
2023-10-23T07:50:51.277Z,101288.13
2023-10-23T07:53:13.137Z,101296.88
2023-10-23T07:55:38.100Z,101297.59
2023-10-23T07:57:59.937Z,101297.75
2023-10-23T08:00:22.488Z,101301.81
2023-10-23T08:02:44.317Z,101301.66
2023-10-23T08:05:06.518Z,101290.00
2023-10-23T08:07:29.334Z,101300.25
2023-10-23T08:09:51.089Z,101298.97
2023-10-23T08:12:14.559Z,101292.50
2023-10-23T08:14:36.677Z,101289.44
2023-10-23T08:16:58.473Z,101291.56
2023-10-23T08:19:21.493Z,101285.59
2023-10-23T08:21:43.350Z,101276.38
2023-10-23T08:24:05.860Z,101278.97
2023-10-23T08:26:27.702Z,101278.50
2023-10-23T08:29:01.905Z,101279.63
2023-10-23T08:31:38.625Z,101278.31
2023-10-23T08:34:02.885Z,101282.22
2023-10-23T08:36:24.889Z,101282.06
2023-10-23T08:38:46.776Z,101280.75
2023-10-23T08:41:13.472Z,101277.84
2023-10-23T08:43:35.195Z,101274.41
2023-10-23T08:46:03.713Z,101273.25
2023-10-23T08:48:25.641Z,101272.56
2023-10-23T08:50:48.159Z,101271.38
2023-10-23T08:53:12.555Z,101274.13
2023-10-23T08:55:34.565Z,101282.41
2023-10-23T08:58:00.802Z,101287.22
2023-10-23T09:00:24.012Z,101288.16
2023-10-23T09:02:51.633Z,101283.53
2023-10-23T09:05:14.357Z,101283.31
2023-10-23T09:07:36.645Z,101281.44
2023-10-23T09:10:05.877Z,101277.94
2023-10-23T09:12:36.990Z,101278.22
2023-10-23T09:15:12.659Z,101281.28
2023-10-23T09:17:34.404Z,101268.38
2023-10-23T09:19:56.258Z,101276.47
2023-10-23T09:22:18.091Z,101267.94
2023-10-23T09:24:40.090Z,101267.31
2023-10-23T09:27:01.923Z,101268.38
2023-10-23T09:29:28.974Z,101265.97
2023-10-23T09:31:53.033Z,101259.56
2023-10-23T09:34:15.125Z,101261.44
2023-10-23T09:36:36.943Z,101257.78
2023-10-23T09:39:01.753Z,101257.72
2023-10-23T09:41:23.517Z,101264.31
2023-10-23T09:43:46.648Z,101257.84
2023-10-23T09:46:12.897Z,101248.66
2023-10-23T09:48:35.025Z,101248.09
2023-10-23T09:51:00.753Z,101244.72
2023-10-23T09:53:22.859Z,101250.41
2023-10-23T09:55:46.823Z,101245.91
2023-10-23T09:58:17.840Z,101242.56
2023-10-23T10:00:41.275Z,101244.41
2023-10-23T10:03:12.604Z,101234.34
2023-10-23T10:05:47.226Z,101235.28
2023-10-23T10:08:14.821Z,101236.16
2023-10-23T10:10:40.849Z,101228.44
2023-10-23T10:13:04.572Z,101230.28
2023-10-23T10:15:27.844Z,101226.00
2023-10-23T10:17:51.150Z,101230.63
2023-10-23T10:20:13.260Z,101222.06
2023-10-23T10:22:39.519Z,101222.59
2023-10-23T10:25:01.701Z,101226.34
2023-10-23T10:27:24.512Z,101216.50
2023-10-23T10:29:47.895Z,101213.94
2023-10-23T10:32:12.946Z,101202.47
2023-10-23T10:34:55.666Z,101204.91
2023-10-23T10:37:26.209Z,101204.66
2023-10-23T10:39:49.386Z,101198.50
2023-10-23T10:42:40.634Z,101198.25
2023-10-23T10:45:11.092Z,101194.16
2023-10-23T10:47:50.613Z,101185.13
2023-10-23T10:50:13.250Z,101184.06
2023-10-23T10:52:37.937Z,101172.25
2023-10-23T10:55:02.166Z,101170.72
2023-10-23T10:57:24.056Z,101173.69
2023-10-23T10:59:45.745Z,101170.19
2023-10-23T11:02:09.349Z,101169.13
2023-10-23T11:04:35.160Z,101159.25
2023-10-23T11:06:57.034Z,101158.56
2023-10-23T11:09:21.922Z,101153.81
2023-10-23T11:11:43.790Z,101151.84
2023-10-23T11:14:05.928Z,101152.66
2023-10-23T11:16:28.566Z,101145.22
2023-10-23T11:18:50.426Z,101153.63
2023-10-23T11:21:12.142Z,101139.06
2023-10-23T11:23:33.913Z,101143.41
2023-10-23T11:25:56.154Z,101141.91
2023-10-23T11:28:19.251Z,101134.47
2023-10-23T11:30:51.176Z,101125.41
2023-10-23T11:33:15.049Z,101116.34
2023-10-23T11:35:36.776Z,101114.81
2023-10-23T11:37:58.534Z,101118.50
2023-10-23T11:40:22.406Z,101110.97
2023-10-23T11:42:50.244Z,101109.44
2023-10-23T11:45:12.524Z,101107.91
2023-10-23T11:47:34.303Z,101096.94
2023-10-23T11:49:56.123Z,101093.06
2023-10-23T11:52:17.992Z,101084.06
2023-10-23T11:54:40.226Z,101085.75
2023-10-23T11:57:01.891Z,101075.81
2023-10-23T11:59:23.949Z,101074.22
2023-10-23T12:01:47.130Z,101073.69
2023-10-23T12:04:09.365Z,101070.16
2023-10-23T12:06:31.297Z,101067.84
2023-10-23T12:08:52.983Z,101057.59
2023-10-23T12:11:14.911Z,101054.19
2023-10-23T12:13:36.957Z,101049.88
2023-10-23T12:15:58.719Z,101052.66
2023-10-23T12:18:23.378Z,101049.06
2023-10-23T12:20:45.184Z,101048.25
2023-10-23T12:23:07.345Z,101050.66
2023-10-23T12:25:29.144Z,101040.75
2023-10-23T12:27:51.085Z,101043.13
2023-10-23T12:30:16.862Z,101040.34
2023-10-23T12:33:15.261Z,101040.78
2023-10-23T12:35:31.605Z,101026.84
2023-10-23T12:37:53.379Z,101023.22
2023-10-23T12:40:15.203Z,101021.63
2023-10-23T12:42:36.983Z,101019.66
2023-10-23T12:44:58.676Z,101020.09
2023-10-23T12:47:20.495Z,101019.75
2023-10-23T12:49:43.554Z,101016.13
2023-10-23T12:52:06.165Z,101013.81
2023-10-23T12:54:28.121Z,101011.41
2023-10-23T12:56:49.869Z,101013.00
2023-10-23T12:59:11.575Z,101003.44
2023-10-23T13:01:33.458Z,100995.03
2023-10-23T13:03:55.459Z,100992.53
2023-10-23T13:06:18.860Z,100990.56
2023-10-23T13:08:42.022Z,100990.91
2023-10-23T13:11:03.875Z,100996.47
2023-10-23T13:13:25.652Z,100994.06
2023-10-23T13:15:47.455Z,100991.66
2023-10-23T13:18:09.405Z,100991.28
2023-10-23T13:21:27.667Z,100986.56
2023-10-23T13:23:12.976Z,100967.44
2023-10-23T13:25:36.057Z,100973.06
2023-10-23T13:27:57.842Z,100966.72
2023-10-23T13:30:19.669Z,100959.13
2023-10-23T13:32:41.565Z,100954.75
2023-10-23T13:35:05.547Z,100943.97
2023-10-23T13:37:28.166Z,100939.53
2023-10-23T13:39:49.905Z,100945.81
2023-10-23T13:42:11.619Z,100940.19
2023-10-23T13:44:34.019Z,100939.38
2023-10-23T13:46:56.009Z,100932.22
2023-10-23T13:49:17.861Z,100931.41
2023-10-23T13:51:39.673Z,100935.00
2023-10-23T13:54:01.595Z,100935.34
2023-10-23T13:56:23.428Z,100936.88
2023-10-23T13:58:46.275Z,100928.88
2023-10-23T14:01:08.008Z,100926.13
2023-10-23T14:03:30.106Z,100923.91
2023-10-23T14:05:51.950Z,100912.41
2023-10-23T14:08:13.687Z,100905.31
2023-10-23T14:10:35.542Z,100898.66
2023-10-23T14:12:57.900Z,100893.97
2023-10-23T14:15:21.591Z,100883.75
2023-10-23T14:17:43.542Z,100882.19
2023-10-23T14:20:07.311Z,100881.09
2023-10-23T14:22:29.249Z,100875.16
2023-10-23T14:24:51.077Z,100871.56
2023-10-23T14:27:13.007Z,100864.03
2023-10-23T14:29:34.900Z,100865.66
2023-10-23T14:31:56.704Z,100867.19
2023-10-23T14:34:18.572Z,100858.34
2023-10-23T14:36:40.405Z,100861.44
2023-10-23T14:39:02.174Z,100846.31
2023-10-23T14:41:23.969Z,100842.34
2023-10-23T14:43:45.665Z,100837.97
2023-10-23T14:46:14.442Z,100831.97
2023-10-23T14:48:36.245Z,100827.59
2023-10-23T14:50:58.407Z,100822.78
2023-10-23T14:53:20.379Z,100815.88
2023-10-23T14:55:42.937Z,100808.66
2023-10-23T14:58:04.819Z,100808.22
2023-10-23T15:00:26.894Z,100799.84
2023-10-23T15:02:49.090Z,100795.03
2023-10-23T15:05:10.923Z,100784.59
2023-10-23T15:07:33.062Z,100790.06
2023-10-23T15:09:55.928Z,100783.25
2023-10-23T15:12:17.789Z,100778.81
2023-10-23T15:14:39.595Z,100767.28
2023-10-23T15:17:01.362Z,100766.06
2023-10-23T15:19:23.381Z,100757.28
2023-10-23T15:21:45.214Z,100759.97
2023-10-23T15:24:10.916Z,100756.28
2023-10-23T15:26:32.661Z,100747.91
2023-10-23T15:28:54.451Z,100743.88
2023-10-23T15:31:16.551Z,100740.59
2023-10-23T15:33:38.253Z,100743.78
2023-10-23T15:36:01.512Z,100739.78
2023-10-23T15:38:26.672Z,100741.31
2023-10-23T15:40:49.994Z,100740.44
2023-10-23T15:43:11.705Z,100738.41
2023-10-23T15:45:38.537Z,100740.81
2023-10-23T15:48:00.960Z,100741.19
2023-10-23T15:50:22.939Z,100734.38
2023-10-23T15:52:44.729Z,100735.94
2023-10-23T15:55:07.027Z,100737.47
2023-10-23T15:57:28.765Z,100737.38
2023-10-23T15:59:50.678Z,100732.22
2023-10-23T16:02:12.631Z,100728.56
2023-10-23T16:04:34.509Z,100733.75
2023-10-23T16:06:56.358Z,100730.19
2023-10-23T16:09:28.065Z,100736.06
2023-10-23T16:11:50.739Z,100742.72
2023-10-23T16:14:12.843Z,100737.09
2023-10-23T16:16:35.851Z,100740.22
2023-10-23T16:18:58.028Z,100742.91
2023-10-23T16:21:19.950Z,100744.09
2023-10-23T16:23:43.092Z,100751.63
2023-10-23T16:26:05.245Z,100742.84
2023-10-23T16:28:27.474Z,100747.16
2023-10-23T16:30:50.053Z,100740.00
2023-10-23T16:33:12.249Z,100738.38
2023-10-23T16:35:38.143Z,100736.81
2023-10-23T16:37:59.918Z,100733.19
2023-10-23T16:40:22.348Z,100734.72
2023-10-23T16:42:47.386Z,100737.50
2023-10-23T16:45:09.800Z,100731.16
2023-10-23T16:47:31.894Z,100727.13
2023-10-23T16:49:54.700Z,100722.75
2023-10-23T16:52:16.820Z,100715.13
2023-10-23T16:54:38.855Z,100713.53
2023-10-23T16:57:00.796Z,100708.34
2023-10-23T16:59:22.514Z,100707.09
2023-10-23T17:01:44.375Z,100692.00
2023-10-23T17:04:06.645Z,100693.91
2023-10-23T17:06:28.357Z,100686.75
2023-10-23T17:08:50.233Z,100692.22
2023-10-23T17:11:12.377Z,100669.63
2023-10-23T17:13:34.336Z,100669.53
2023-10-23T17:15:56.118Z,100661.94
2023-10-23T17:18:18.006Z,100666.25
2023-10-23T17:20:42.235Z,100665.72
2023-10-23T17:23:04.612Z,100658.56
2023-10-23T17:25:26.498Z,100646.97
2023-10-23T17:27:50.695Z,100640.63
2023-10-23T17:30:13.338Z,100644.50
2023-10-23T17:32:36.352Z,100637.34
2023-10-23T17:34:58.241Z,100631.00
2023-10-23T17:37:19.985Z,100630.19
2023-10-23T17:39:42.003Z,100624.66
2023-10-23T17:42:04.815Z,100619.91
2023-10-23T17:44:28.006Z,100617.06
2023-10-23T17:46:49.823Z,100607.06
2023-10-23T17:49:12.211Z,100603.06
2023-10-23T17:51:35.476Z,100606.56
2023-10-23T17:54:05.451Z,100609.69
2023-10-23T17:56:27.968Z,100605.75
2023-10-23T17:58:50.159Z,100612.47
2023-10-23T18:01:14.216Z,100612.00
2023-10-23T18:03:36.948Z,100622.75
2023-10-23T18:06:00.044Z,100625.84
2023-10-23T18:08:21.732Z,100624.25
2023-10-23T18:10:43.510Z,100614.72
2023-10-23T18:13:05.244Z,100608.72
2023-10-23T18:15:27.044Z,100609.19
2023-10-23T18:17:48.989Z,100611.50
2023-10-23T18:20:11.865Z,100611.50
2023-10-23T18:22:33.688Z,100599.97
2023-10-23T18:24:56.142Z,100590.06
2023-10-23T18:27:18.071Z,100593.28
2023-10-23T18:29:39.886Z,100586.94
2023-10-23T18:32:01.734Z,100584.53
2023-10-23T18:34:23.513Z,100583.34
2023-10-23T18:36:45.821Z,100579.00
2023-10-23T18:39:07.689Z,100582.56
2023-10-23T18:41:29.654Z,100573.81
2023-10-23T18:43:51.441Z,100583.28
2023-10-23T18:46:14.720Z,100573.75
2023-10-23T18:48:37.305Z,100578.91
2023-10-23T18:51:02.114Z,100577.66
2023-10-23T18:53:23.892Z,100574.16
2023-10-23T18:55:45.667Z,100572.56
2023-10-23T18:58:07.389Z,100566.25
2023-10-23T19:00:29.362Z,100568.91
2023-10-23T19:02:52.497Z,100564.53
2023-10-23T19:05:14.299Z,100561.34
2023-10-23T19:07:36.505Z,100559.75
2023-10-23T19:09:59.465Z,100558.91
2023-10-23T19:12:21.248Z,100548.66
2023-10-23T19:14:43.145Z,100553.38
2023-10-23T19:17:06.322Z,100549.03
2023-10-23T19:19:29.323Z,100543.84
2023-10-23T19:21:51.018Z,100540.66
2023-10-23T19:24:15.443Z,100543.03
2023-10-23T19:26:37.570Z,100539.47
2023-10-23T19:29:00.271Z,100536.59
2023-10-23T19:31:26.135Z,100537.78
2023-10-23T19:33:48.512Z,100526.25
2023-10-23T19:36:11.800Z,100530.22
2023-10-23T19:38:33.896Z,100521.53
2023-10-23T19:41:02.505Z,100521.09
2023-10-23T19:43:32.275Z,100519.94
2023-10-23T19:45:55.960Z,100505.66
2023-10-23T19:48:18.345Z,100503.63
2023-10-23T19:50:47.490Z,100498.44
2023-10-23T19:53:11.448Z,100496.84
2023-10-23T19:55:43.129Z,100502.38
2023-10-23T19:58:08.476Z,100492.09
2023-10-23T20:00:30.917Z,100488.16
2023-10-23T20:02:52.725Z,100485.75
2023-10-23T20:05:14.492Z,100486.91
2023-10-23T20:07:36.246Z,100479.44
2023-10-23T20:09:58.014Z,100480.22
2023-10-23T20:12:19.779Z,100465.16
2023-10-23T20:14:41.663Z,100457.19
2023-10-23T20:17:03.691Z,100463.47
2023-10-23T20:19:25.621Z,100445.25
2023-10-23T20:21:47.475Z,100433.38
2023-10-23T20:24:09.294Z,100432.59
2023-10-23T20:26:31.092Z,100436.53
2023-10-23T20:28:52.837Z,100429.75
2023-10-23T20:31:19.217Z,100430.91
2023-10-23T20:33:41.531Z,100421.44
2023-10-23T20:36:03.414Z,100419.03
2023-10-23T20:38:25.329Z,100426.16
2023-10-23T20:40:47.185Z,100415.03
2023-10-23T20:43:08.979Z,100408.31
2023-10-23T20:45:30.885Z,100403.63
2023-10-23T20:47:52.617Z,100395.66
2023-10-23T20:50:14.462Z,100395.66
2023-10-23T20:52:36.297Z,100401.06
2023-10-23T20:54:58.623Z,100391.53
2023-10-23T20:57:20.458Z,100385.59
2023-10-23T20:59:42.231Z,100372.09
2023-10-23T21:02:04.150Z,100373.63
2023-10-23T21:04:26.132Z,100364.91
2023-10-23T21:06:47.907Z,100358.91
2023-10-23T21:09:09.639Z,100350.63
2023-10-23T21:11:33.316Z,100347.84
2023-10-23T21:13:55.073Z,100350.19
2023-10-23T21:16:16.974Z,100352.53
2023-10-23T21:18:38.669Z,100352.53
2023-10-23T21:21:00.601Z,100343.41
2023-10-23T21:23:22.438Z,100339.84
2023-10-23T21:25:44.258Z,100333.06
2023-10-23T21:28:06.170Z,100331.03
2023-10-23T21:30:27.999Z,100321.13
2023-10-23T21:32:50.760Z,100305.28
2023-10-23T21:35:12.538Z,100305.22
2023-10-23T21:37:34.309Z,100302.00
2023-10-23T21:39:56.248Z,100298.78
2023-10-23T21:42:18.083Z,100297.22
2023-10-23T21:44:39.928Z,100299.97
2023-10-23T21:47:01.943Z,100290.50
2023-10-23T21:49:23.733Z,100285.31
2023-10-23T21:51:45.923Z,100291.69
2023-10-23T21:54:08.348Z,100281.41
2023-10-23T21:56:43.374Z,100273.13
2023-10-23T21:59:19.030Z,100273.13
2023-10-23T22:01:41.646Z,100267.94
2023-10-23T22:04:04.073Z,100260.09
2023-10-23T22:06:26.355Z,100266.78
2023-10-23T22:08:48.703Z,100262.50
2023-10-23T22:11:11.903Z,100255.44
2023-10-23T22:13:34.650Z,100255.84
2023-10-23T22:15:56.594Z,100257.53
2023-10-23T22:18:18.528Z,100253.63
2023-10-23T22:20:40.425Z,100239.78
2023-10-23T22:23:02.224Z,100247.69
2023-10-23T22:25:23.917Z,100239.06
2023-10-23T22:27:45.649Z,100238.25
2023-10-23T22:30:08.284Z,100231.50
2023-10-23T22:32:29.961Z,100230.31
2023-10-23T22:34:51.695Z,100229.16
2023-10-23T22:38:05.637Z,100231.50
2023-10-23T22:39:55.283Z,100231.53
2023-10-23T22:42:17.014Z,100222.53
2023-10-23T22:44:39.679Z,100227.34
2023-10-23T22:47:02.052Z,100226.53
2023-10-23T22:49:24.247Z,100232.13
2023-10-23T22:51:46.332Z,100227.84
2023-10-23T22:54:08.861Z,100227.47
2023-10-23T22:56:32.633Z,100224.72
2023-10-23T22:59:04.279Z,100211.72
2023-10-23T23:01:26.531Z,100211.72
2023-10-23T23:03:52.275Z,100204.16
2023-10-23T23:06:18.801Z,100198.94
2023-10-23T23:08:43.664Z,100194.19
2023-10-23T23:11:06.310Z,100185.91
2023-10-23T23:13:28.396Z,100186.28
2023-10-23T23:15:52.599Z,100191.00
2023-10-23T23:18:20.065Z,100197.34
2023-10-23T23:20:44.911Z,100204.56
2023-10-23T23:23:06.691Z,100195.50
2023-10-23T23:25:28.431Z,100210.13
2023-10-23T23:27:50.245Z,100196.31
2023-10-23T23:30:12.237Z,100193.53
2023-10-23T23:32:34.084Z,100184.38
2023-10-23T23:34:56.096Z,100189.47
2023-10-23T23:37:17.905Z,100195.72
2023-10-23T23:39:41.084Z,100187.88
2023-10-23T23:42:03.321Z,100195.88
2023-10-23T23:44:25.070Z,100195.13
2023-10-23T23:46:46.854Z,100203.06
2023-10-23T23:49:09.140Z,100188.50
2023-10-23T23:51:31.196Z,100184.94
2023-10-23T23:53:52.901Z,100178.19
2023-10-23T23:56:14.728Z,100193.59
2023-10-23T23:58:36.601Z,100193.59
